createdAt,value
2019-05-22T00:00:13.914Z,98486.19
2019-05-22T00:02:44.741Z,98485.69
2019-05-22T00:05:22.222Z,98491.01
2019-05-22T00:07:53.696Z,98491.01
2019-05-22T00:10:28.104Z,98496.61
2019-05-22T00:12:59.499Z,98497.70
2019-05-22T00:15:30.161Z,98497.95
2019-05-22T00:20:37.275Z,98486.31
2019-05-22T00:23:10.545Z,98503.85
2019-05-22T00:25:40.921Z,98503.85
2019-05-22T00:28:12.169Z,98503.33
2019-05-22T00:30:44.244Z,98491.10
2019-05-22T00:33:15.781Z,98487.09
2019-05-22T00:35:46.879Z,98491.91
2019-05-22T00:38:18.217Z,98505.50
2019-05-22T00:40:54.983Z,98499.91
2019-05-22T00:43:36.938Z,98487.67
2019-05-22T00:46:09.766Z,98487.67
2019-05-22T00:48:44.356Z,98505.75
2019-05-22T00:51:34.765Z,98505.75
2019-05-22T00:54:36.238Z,98506.31
2019-05-22T00:57:26.456Z,98506.31
2019-05-22T01:00:19.033Z,98504.22
2019-05-22T01:02:54.088Z,98496.48
2019-05-22T02:33:33.266Z,98522.50
2019-05-22T02:36:04.798Z,98513.47
2019-05-22T02:38:37.272Z,98513.47
2019-05-22T02:41:09.337Z,98527.55
2019-05-22T02:43:39.373Z,98528.63
2019-05-22T02:46:11.979Z,98528.63
2019-05-22T02:48:44.178Z,98516.12
2019-05-22T02:51:15.331Z,98516.12
2019-05-22T02:53:46.472Z,98536.88
2019-05-22T02:56:17.435Z,98536.12
2019-05-22T03:01:02.114Z,98538.23
2019-05-22T03:03:31.989Z,98540.69
2019-05-22T03:06:03.593Z,98539.09
2019-05-22T03:12:03.751Z,98545.23
2019-05-22T03:17:27.760Z,98547.34
2019-05-22T03:19:59.679Z,98556.23
2019-05-22T03:22:39.671Z,98553.78
2019-05-22T03:25:11.450Z,98556.23
2019-05-22T03:27:44.527Z,98553.83
2019-05-22T03:30:27.833Z,98553.83
2019-05-22T03:33:00.841Z,98556.50
2019-05-22T03:35:34.761Z,98556.50
2019-05-22T03:38:05.922Z,98562.36
2019-05-22T03:40:37.557Z,98562.36
2019-05-22T03:43:17.340Z,98566.14
2019-05-22T03:45:48.735Z,98562.91
2019-05-22T03:48:21.654Z,98562.91
2019-05-22T03:50:56.002Z,98564.80
2019-05-22T03:53:27.566Z,98565.05
2019-05-22T03:55:59.076Z,98544.77
2019-05-22T03:58:30.554Z,98558.12
2019-05-22T04:01:03.546Z,98567.48
2019-05-22T04:03:35.135Z,98567.48
2019-05-22T04:06:06.085Z,98560.77
2019-05-22T04:08:36.976Z,98572.27
2019-05-22T04:11:08.284Z,98572.27
2019-05-22T04:13:40.099Z,98572.27
2019-05-22T04:16:13.399Z,98574.69
2019-05-22T04:18:44.523Z,98583.77
2019-05-22T04:21:16.886Z,98572.89
2019-05-22T04:23:47.003Z,98572.89
2019-05-22T04:26:18.375Z,98585.13
2019-05-22T04:28:52.486Z,98585.13
2019-05-22T04:31:46.001Z,98585.37
2019-05-22T04:34:16.029Z,98587.23
2019-05-22T04:36:47.868Z,98589.38
2019-05-22T04:39:23.743Z,98590.20
2019-05-22T04:41:56.054Z,98591.50
2019-05-22T04:44:26.414Z,98591.50
2019-05-22T04:46:56.962Z,98603.81
2019-05-22T04:49:26.383Z,98603.81
2019-05-22T04:51:55.766Z,98602.47
2019-05-22T04:54:25.901Z,98605.95
2019-05-22T04:58:33.924Z,98613.95
2019-05-22T05:01:03.783Z,98612.34
2019-05-22T05:03:35.367Z,98615.02
2019-05-22T05:09:34.946Z,98611.51
2019-05-22T05:12:05.319Z,98620.64
2019-05-22T05:14:34.002Z,98620.64
2019-05-22T05:17:03.676Z,98599.81
2019-05-22T05:19:32.301Z,98622.23
2019-05-22T05:23:13.273Z,98621.70
2019-05-22T05:25:43.625Z,98621.70
2019-05-22T05:28:13.892Z,98624.91
2019-05-22T05:30:43.906Z,98617.69
2019-05-22T05:33:13.722Z,98617.69
2019-05-22T05:35:42.367Z,98626.96
2019-05-22T05:38:10.204Z,98629.89
2019-05-22T05:40:42.397Z,98629.35
2019-05-22T05:43:12.126Z,98612.27
2019-05-22T05:45:40.714Z,98628.80
2019-05-22T05:48:10.560Z,98632.55
2019-05-22T05:50:40.490Z,98628.48
2019-05-22T05:53:15.059Z,98632.49
2019-05-22T05:56:20.942Z,98630.92
2019-05-22T05:58:49.167Z,98637.06
2019-05-22T06:01:23.801Z,98636.02
2019-05-22T06:03:55.555Z,98641.09
2019-05-22T06:07:19.041Z,98560.09
2019-05-22T06:10:33.901Z,98644.23
2019-05-22T06:13:04.013Z,98646.07
2019-05-22T06:16:28.686Z,98650.06
2019-05-22T06:19:00.667Z,98639.89
2019-05-22T06:21:30.591Z,98642.01
2019-05-22T06:24:25.064Z,98631.63
2019-05-22T06:27:23.062Z,98637.77
2019-05-22T06:29:56.987Z,98637.77
2019-05-22T06:33:17.079Z,98652.72
2019-05-22T06:35:48.256Z,98661.50
2019-05-22T06:38:53.789Z,98667.16
2019-05-22T06:41:48.662Z,98666.33
2019-05-22T06:44:52.788Z,98671.95
2019-05-22T06:47:23.363Z,98671.95
2019-05-22T06:49:55.312Z,98672.72
2019-05-22T06:52:24.059Z,98672.72
2019-05-22T06:54:54.470Z,98675.11
2019-05-22T06:57:28.967Z,98664.71
2019-05-22T07:00:14.639Z,98676.09
2019-05-22T07:02:36.599Z,98676.09
2019-05-22T07:05:09.663Z,98678.47
2019-05-22T07:09:30.499Z,98682.05
2019-05-22T07:15:25.230Z,98675.83
2019-05-22T07:17:56.592Z,98682.55
2019-05-22T07:20:30.669Z,98683.11
2019-05-22T07:23:51.487Z,98684.04
2019-05-22T07:26:21.614Z,98684.58
2019-05-22T07:28:51.901Z,98688.06
2019-05-22T07:31:22.614Z,98692.48
2019-05-22T07:33:51.673Z,98692.48
2019-05-22T07:36:21.564Z,98700.48
2019-05-22T07:38:51.703Z,98686.52
2019-05-22T07:42:29.971Z,98691.34
2019-05-22T07:45:28.885Z,98692.33
2019-05-22T07:47:59.193Z,98695.54
2019-05-22T07:50:28.488Z,98693.07
2019-05-22T07:52:57.665Z,98687.42
2019-05-22T07:55:27.432Z,98688.23
2019-05-22T07:58:11.686Z,98693.03
2019-05-22T08:00:44.757Z,98693.52
2019-05-22T08:03:14.499Z,98700.10
2019-05-22T08:05:51.462Z,98703.48
2019-05-22T08:08:21.315Z,98710.42
2019-05-22T08:10:52.238Z,98699.36
2019-05-22T08:13:22.112Z,98702.73
2019-05-22T08:15:53.486Z,98704.99
2019-05-22T08:18:30.711Z,98699.48
2019-05-22T08:21:00.882Z,98704.67
2019-05-22T08:23:32.017Z,98704.67
2019-05-22T08:26:02.893Z,98701.47
2019-05-22T08:28:34.136Z,98701.47
2019-05-22T08:31:05.478Z,98699.78
2019-05-22T08:33:36.854Z,98682.48
2019-05-22T08:36:09.032Z,98686.94
2019-05-22T08:38:39.901Z,98686.94
2019-05-22T08:41:11.467Z,98699.86
2019-05-22T08:44:11.218Z,98685.97
2019-05-22T08:46:15.055Z,98695.19
2019-05-22T08:48:48.758Z,98701.80
2019-05-22T08:51:39.386Z,98693.45
2019-05-22T08:54:09.657Z,98716.30
2019-05-22T08:56:41.725Z,98708.75
2019-05-22T08:59:19.427Z,98716.48
2019-05-22T09:01:42.589Z,98716.48
2019-05-22T09:04:12.620Z,98715.89
2019-05-22T09:09:21.862Z,98715.13
2019-05-22T09:11:51.093Z,98725.69
2019-05-22T09:14:20.648Z,98724.07
2019-05-22T09:17:37.347Z,98728.53
2019-05-22T09:20:07.966Z,98733.41
2019-05-22T09:22:41.098Z,98733.13
2019-05-22T09:25:12.147Z,98728.82
2019-05-22T09:27:41.866Z,98651.77
2019-05-22T09:30:11.346Z,98724.38
2019-05-22T09:32:40.885Z,98729.50
2019-05-22T09:35:10.436Z,98729.73
2019-05-22T09:37:39.338Z,98729.73
2019-05-22T09:40:08.892Z,98737.27
2019-05-22T09:42:39.980Z,98720.87
2019-05-22T09:47:35.515Z,98727.61
2019-05-22T09:50:08.586Z,98727.61
2019-05-22T09:52:55.912Z,98739.50
2019-05-22T09:55:14.519Z,98741.42
2019-05-22T09:57:47.883Z,98746.75
2019-05-22T10:00:19.494Z,98746.75
2019-05-22T10:02:52.781Z,98747.61
2019-05-22T10:05:21.228Z,98752.06
2019-05-22T10:08:00.630Z,98749.73
2019-05-22T10:10:26.253Z,98735.70
2019-05-22T10:12:57.920Z,98735.70
2019-05-22T10:15:28.653Z,98751.30
2019-05-22T10:17:59.609Z,98753.29
2019-05-22T10:20:28.797Z,98758.20
2019-05-22T10:23:14.647Z,98756.49
2019-05-22T10:25:32.231Z,98756.49
2019-05-22T10:28:06.150Z,98743.13
2019-05-22T10:30:38.818Z,98758.84
2019-05-22T10:33:08.750Z,98758.84
2019-05-22T10:35:40.279Z,98757.56
2019-05-22T10:38:13.735Z,98761.28
2019-05-22T10:40:45.058Z,98755.80
2019-05-22T10:43:16.939Z,98754.75
2019-05-22T10:45:48.992Z,98752.71
2019-05-22T10:48:20.534Z,98774.39
2019-05-22T10:50:52.299Z,98753.47
2019-05-22T10:53:32.833Z,98753.47
2019-05-22T10:55:52.499Z,98772.28
2019-05-22T10:58:21.082Z,98767.89
2019-05-22T11:00:50.461Z,98759.95
2019-05-22T11:03:20.890Z,98763.28
2019-05-22T11:06:06.278Z,98765.55
2019-05-22T11:08:28.969Z,98765.91
2019-05-22T11:10:58.798Z,98765.91
2019-05-22T11:13:29.739Z,98759.41
2019-05-22T11:16:01.366Z,98764.28
2019-05-22T11:18:35.603Z,98764.14
2019-05-22T11:21:06.535Z,98766.67
2019-05-22T11:23:51.338Z,98766.67
2019-05-22T11:26:10.880Z,98766.37
2019-05-22T11:28:42.814Z,98744.19
2019-05-22T11:31:13.336Z,98744.19
2019-05-22T11:33:42.779Z,98753.80
2019-05-22T11:36:12.352Z,98763.22
2019-05-22T11:38:41.326Z,98775.28
2019-05-22T11:41:09.794Z,98767.13
2019-05-22T11:43:39.259Z,98768.54
2019-05-22T11:46:08.589Z,98763.84
2019-05-22T11:48:39.914Z,98763.41
2019-05-22T11:51:09.731Z,98744.37
2019-05-22T11:53:39.945Z,98766.48
2019-05-22T11:56:11.230Z,98760.05
2019-05-22T11:58:40.779Z,98750.45
2019-05-22T12:01:09.864Z,98750.45
2019-05-22T12:03:38.871Z,98766.02
2019-05-22T12:06:08.078Z,98776.78
2019-05-22T12:08:38.323Z,98769.98
2019-05-22T12:11:08.788Z,98777.35
2019-05-22T12:14:09.127Z,98775.20
2019-05-22T12:16:40.019Z,98775.20
2019-05-22T12:19:13.113Z,98768.94
2019-05-22T12:21:44.542Z,98772.11
2019-05-22T12:24:26.096Z,98771.67
2019-05-22T12:26:44.836Z,98774.69
2019-05-22T12:29:17.367Z,98777.26
2019-05-22T12:31:47.430Z,98777.26
2019-05-22T12:34:18.049Z,98772.03
2019-05-22T12:36:51.211Z,98772.03
2019-05-22T12:39:21.988Z,98767.78
2019-05-22T12:41:51.247Z,98769.66
2019-05-22T12:44:20.686Z,98768.13
2019-05-22T12:46:50.704Z,98691.16
2019-05-22T12:49:38.935Z,98778.98
2019-05-22T12:52:09.655Z,98759.57
2019-05-22T12:54:46.852Z,98759.57
2019-05-22T12:57:10.283Z,98773.30
2019-05-22T12:59:40.146Z,98771.48
2019-05-22T13:02:09.492Z,98773.60
2019-05-22T13:04:40.986Z,98774.20
2019-05-22T13:08:05.315Z,98757.84
2019-05-22T13:10:35.083Z,98771.84
2019-05-22T13:13:04.788Z,98771.84
2019-05-22T13:15:37.473Z,98774.20
2019-05-22T13:18:11.285Z,98762.26
2019-05-22T13:20:46.400Z,98767.14
2019-05-22T13:23:17.955Z,98767.14
2019-05-22T13:25:50.069Z,98766.32
2019-05-22T13:28:19.401Z,98767.55
2019-05-22T13:30:53.288Z,98770.41
2019-05-22T13:33:25.663Z,98770.41
2019-05-22T13:35:57.847Z,98771.80
2019-05-22T13:38:29.081Z,98773.09
2019-05-22T13:40:59.258Z,98773.39
2019-05-22T13:43:30.989Z,98773.39
2019-05-22T13:46:00.763Z,98768.66
2019-05-22T13:48:32.519Z,98765.66
2019-05-22T13:51:04.649Z,98765.66
2019-05-22T13:53:33.900Z,98760.60
2019-05-22T13:56:04.263Z,98765.78
2019-05-22T13:58:35.609Z,98766.89
2019-05-22T14:01:07.412Z,98767.08
2019-05-22T14:03:38.525Z,98749.09
2019-05-22T14:06:10.415Z,98766.66
2019-05-22T14:08:41.848Z,98766.66
2019-05-22T14:11:14.224Z,98759.90
2019-05-22T14:13:46.754Z,98764.73
2019-05-22T14:16:19.409Z,98760.88
2019-05-22T14:18:50.431Z,98758.43
2019-05-22T14:21:22.808Z,98758.43
2019-05-22T14:23:54.162Z,98764.44
2019-05-22T14:26:24.959Z,98764.44
2019-05-22T14:28:55.443Z,98747.61
2019-05-22T14:31:26.545Z,98747.61
2019-05-22T14:33:56.313Z,98759.66
2019-05-22T14:36:28.404Z,98755.91
2019-05-22T14:39:00.292Z,98756.74
2019-05-22T14:41:31.828Z,98756.16
2019-05-22T14:44:02.325Z,98756.16
2019-05-22T14:46:32.702Z,98754.98
2019-05-22T14:49:03.193Z,98744.23
2019-05-22T14:51:33.578Z,98748.09
2019-05-22T14:56:35.274Z,98744.23
2019-05-22T14:59:07.389Z,98730.72
2019-05-22T15:01:38.644Z,98731.03
2019-05-22T15:04:09.042Z,98731.03
2019-05-22T15:06:40.986Z,98745.99
2019-05-22T15:09:11.449Z,98740.58
2019-05-22T15:11:42.549Z,98737.54
2019-05-22T15:14:13.926Z,98737.54
2019-05-22T15:16:45.654Z,98739.75
2019-05-22T15:19:17.554Z,98739.75
2019-05-22T15:21:48.941Z,98735.47
2019-05-22T15:24:19.288Z,98742.70
2019-05-22T15:26:50.211Z,98722.55
2019-05-22T15:29:20.992Z,98722.55
2019-05-22T15:34:39.389Z,98715.89
2019-05-22T15:37:11.269Z,98715.89
2019-05-22T15:39:43.151Z,98737.27
2019-05-22T15:42:44.712Z,98742.38
2019-05-22T15:45:19.049Z,98737.73
2019-05-22T15:47:55.249Z,98733.18
2019-05-22T15:50:27.294Z,98733.18
2019-05-22T15:53:05.580Z,98738.63
2019-05-22T15:55:38.288Z,98740.20
2019-05-22T15:58:09.817Z,98741.01
2019-05-22T16:00:43.076Z,98740.61
2019-05-22T16:03:17.184Z,98732.20
2019-05-22T16:05:48.458Z,98745.16
2019-05-22T16:08:19.484Z,98745.16
2019-05-22T16:10:51.313Z,98738.92
2019-05-22T16:13:24.181Z,98724.61
2019-05-22T16:15:56.566Z,98742.30
2019-05-22T16:18:29.233Z,98742.30
2019-05-22T16:21:01.500Z,98647.44
2019-05-22T16:23:35.006Z,98719.98
2019-05-22T16:26:05.989Z,98739.97
2019-05-22T16:28:38.581Z,98739.97
2019-05-22T16:31:09.947Z,98744.31
2019-05-22T16:33:42.679Z,98742.19
2019-05-22T16:36:14.961Z,98741.67
2019-05-22T16:38:47.463Z,98740.41
2019-05-22T16:41:19.388Z,98744.09
2019-05-22T16:43:51.619Z,98738.20
2019-05-22T16:46:23.047Z,98723.94
2019-05-22T16:48:55.334Z,98723.94
2019-05-22T16:51:30.743Z,98742.64
2019-05-22T16:54:05.580Z,98738.89
2019-05-22T16:56:37.929Z,98738.85
2019-05-22T16:59:10.072Z,98737.77
2019-05-22T17:01:57.498Z,98738.02
2019-05-22T17:04:14.078Z,98728.69
2019-05-22T17:06:46.498Z,98728.69
2019-05-22T17:09:19.421Z,98745.51
2019-05-22T17:11:51.480Z,98738.89
2019-05-22T17:14:23.700Z,98732.95
2019-05-22T17:16:56.543Z,98739.95
2019-05-22T17:19:28.636Z,98741.88
2019-05-22T17:22:00.728Z,98732.38
2019-05-22T17:24:34.364Z,98740.29
2019-05-22T17:27:06.925Z,98740.29
2019-05-22T17:29:38.953Z,98741.52
2019-05-22T17:32:11.811Z,98685.94
2019-05-22T17:34:43.452Z,98733.00
2019-05-22T17:37:17.793Z,98749.24
2019-05-22T17:41:11.447Z,98748.18
2019-05-22T17:43:41.692Z,98755.95
2019-05-22T17:46:12.067Z,98756.42
2019-05-22T17:48:42.838Z,98756.42
2019-05-22T17:51:14.683Z,98761.80
2019-05-22T17:53:45.757Z,98761.80
2019-05-22T17:56:17.060Z,98761.95
2019-05-22T17:58:47.823Z,98766.16
2019-05-22T18:01:41.481Z,98759.53
2019-05-22T18:04:13.719Z,98749.20
2019-05-22T18:06:44.578Z,98749.20
2019-05-22T18:09:15.061Z,98768.56
2019-05-22T18:11:47.334Z,98768.13
2019-05-22T18:14:17.281Z,98765.98
2019-05-22T18:16:48.571Z,98766.37
2019-05-22T18:19:19.955Z,98757.91
2019-05-22T18:21:51.689Z,98751.25
2019-05-22T18:24:21.035Z,98751.25
2019-05-22T18:26:53.099Z,98777.44
2019-05-22T18:29:24.391Z,98777.44
2019-05-22T18:31:55.083Z,98784.36
2019-05-22T18:34:25.719Z,98784.36
2019-05-22T18:36:56.756Z,98792.27
2019-05-22T18:39:29.330Z,98793.02
2019-05-22T18:42:00.041Z,98793.02
2019-05-22T18:46:13.305Z,98789.59
2019-05-22T18:48:44.188Z,98797.08
2019-05-22T18:51:13.365Z,98797.08
2019-05-22T18:53:44.110Z,98802.53
2019-05-22T18:56:14.425Z,98802.53
2019-05-22T18:58:51.109Z,98772.93
2019-05-22T19:01:19.617Z,98803.13
2019-05-22T19:03:49.960Z,98799.39
2019-05-22T19:06:29.801Z,98804.27
2019-05-22T19:08:50.419Z,98802.97
2019-05-22T19:11:19.680Z,98813.14
2019-05-22T19:16:48.899Z,98800.19
2019-05-22T19:19:20.230Z,98800.19
2019-05-22T19:21:51.190Z,98819.07
2019-05-22T19:24:21.576Z,98817.45
2019-05-22T19:26:52.304Z,98820.16
2019-05-22T19:29:22.589Z,98823.55
2019-05-22T19:31:52.160Z,98822.00
2019-05-22T19:34:21.697Z,98824.96
2019-05-22T19:36:51.912Z,98836.19
2019-05-22T19:39:22.169Z,98839.72
2019-05-22T19:42:01.872Z,98846.99
2019-05-22T19:44:25.907Z,98830.69
2019-05-22T19:46:55.938Z,98830.69
2019-05-22T19:49:28.827Z,98844.52
2019-05-22T19:51:59.947Z,98848.94
2019-05-22T19:54:31.313Z,98850.09
2019-05-22T19:57:04.364Z,98852.56
2019-05-22T19:59:35.198Z,98858.14
2019-05-22T20:02:05.148Z,98858.14
2019-05-22T20:04:32.996Z,98859.20
2019-05-22T20:07:01.938Z,98857.37
2019-05-22T20:09:30.809Z,98860.05
2019-05-22T20:11:58.903Z,98856.09
2019-05-22T20:14:30.471Z,98856.09
2019-05-22T20:16:58.625Z,98845.19
2019-05-22T20:19:28.956Z,98865.02
2019-05-22T20:22:00.319Z,98860.43
2019-05-22T20:24:31.248Z,98850.02
2019-05-22T20:27:02.027Z,98850.02
2019-05-22T20:31:38.387Z,98854.88
2019-05-22T20:34:09.063Z,98858.13
2019-05-22T20:36:40.852Z,98858.13
2019-05-22T20:39:12.072Z,98858.65
2019-05-22T20:41:44.205Z,98871.16
2019-05-22T20:44:16.789Z,98871.16
2019-05-22T20:46:48.895Z,98871.97
2019-05-22T20:49:20.597Z,98868.19
2019-05-22T20:51:50.840Z,98859.68
2019-05-22T20:54:22.377Z,98876.70
2019-05-22T20:56:54.036Z,98859.55
2019-05-22T20:59:25.806Z,98859.55
2019-05-22T21:01:56.503Z,98874.80
2019-05-22T21:04:30.257Z,98875.64
2019-05-22T21:07:05.462Z,98875.64
2019-05-22T21:09:36.778Z,98876.61
2019-05-22T21:12:08.084Z,98876.61
2019-05-22T21:14:39.295Z,98876.14
2019-05-22T21:17:11.235Z,98864.30
2019-05-22T21:19:40.760Z,98864.30
2019-05-22T21:22:14.305Z,98877.17
2019-05-22T21:24:45.581Z,98880.57
2019-05-22T21:27:17.109Z,98874.14
2019-05-22T21:29:47.053Z,98874.14
2019-05-22T21:32:16.548Z,98873.06
2019-05-22T21:34:45.760Z,98876.05
2019-05-22T21:37:15.943Z,98877.66
2019-05-22T21:39:44.517Z,98879.34
2019-05-22T21:42:15.695Z,98877.72
2019-05-22T21:44:45.799Z,98869.68
2019-05-22T21:47:15.813Z,98868.64
2019-05-22T21:49:44.029Z,98863.33
2019-05-22T21:52:12.865Z,98865.73
2019-05-22T21:54:41.722Z,98858.25
2019-05-22T21:57:11.712Z,98858.25
2019-05-22T21:59:42.069Z,98856.70
2019-05-22T22:02:17.386Z,98856.68
2019-05-22T22:04:47.370Z,98848.98
2019-05-22T22:08:25.000Z,98859.08
2019-05-22T22:10:54.972Z,98868.77
2019-05-22T22:13:24.643Z,98866.37
2019-05-22T22:15:54.244Z,98863.94
2019-05-22T22:18:25.483Z,98861.53
2019-05-22T22:20:55.706Z,98867.19
2019-05-22T22:23:24.597Z,98866.15
2019-05-22T22:25:54.602Z,98874.20
2019-05-22T22:28:24.877Z,98878.23
2019-05-22T22:30:56.524Z,98871.02
2019-05-22T22:33:27.526Z,98876.36
2019-05-22T22:35:55.368Z,98882.52
2019-05-22T22:38:25.629Z,98879.88
2019-05-22T22:40:54.418Z,98878.00
2019-05-22T22:43:23.141Z,98879.59
2019-05-22T22:46:01.143Z,98877.77
2019-05-22T22:48:32.231Z,98860.41
2019-05-22T22:51:03.728Z,98876.42
2019-05-22T22:53:34.707Z,98876.45
2019-05-22T22:56:05.320Z,98881.02
2019-05-22T22:58:34.953Z,98875.14
2019-05-22T23:01:06.303Z,98879.14
2019-05-22T23:04:09.842Z,98870.83
2019-05-22T23:06:38.157Z,98879.95
2019-05-22T23:09:07.957Z,98879.95
2019-05-22T23:11:37.141Z,98881.27
2019-05-22T23:14:05.614Z,98884.78
2019-05-22T23:16:35.539Z,98886.13
2019-05-22T23:19:40.156Z,98889.61
2019-05-22T23:22:30.848Z,98880.23
2019-05-22T23:25:00.128Z,98888.03
2019-05-22T23:27:30.691Z,98888.55
2019-05-22T23:30:00.537Z,98892.03
2019-05-22T23:32:30.647Z,98889.38
2019-05-22T23:35:00.555Z,98887.78
2019-05-22T23:37:30.867Z,98894.72
2019-05-22T23:40:01.027Z,98890.17
2019-05-22T23:42:34.667Z,98890.17
2019-05-22T23:45:06.855Z,98892.84
2019-05-22T23:48:01.798Z,98886.44
2019-05-22T23:50:31.581Z,98889.66
2019-05-22T23:53:01.695Z,98886.20
2019-05-22T23:55:31.884Z,98886.98
